createdAt,value
2018-08-28T00:02:20.981Z,21.84
2018-08-28T00:04:50.032Z,21.89
2018-08-28T00:07:19.051Z,21.82
2018-08-28T00:09:47.957Z,21.87
2018-08-28T00:12:16.839Z,21.87
2018-08-28T00:14:46.308Z,21.97
2018-08-28T00:17:15.154Z,21.93
2018-08-28T00:19:44.106Z,22.01
2018-08-28T00:22:13.561Z,21.96
2018-08-28T00:24:42.394Z,21.97
2018-08-28T00:27:11.443Z,22.01
2018-08-28T00:29:40.610Z,22.04
2018-08-28T00:32:09.612Z,22.06
2018-08-28T00:34:38.655Z,22.02
2018-08-28T00:37:07.686Z,21.95
2018-08-28T00:39:36.670Z,21.96
2018-08-28T00:42:05.765Z,21.95
2018-08-28T00:44:35.212Z,22.03
2018-08-28T00:47:04.404Z,22.05
2018-08-28T00:49:33.545Z,22.06
2018-08-28T00:52:02.903Z,22.06
2018-08-28T00:54:31.658Z,22.05
2018-08-28T00:57:00.659Z,22.03
2018-08-28T00:59:29.981Z,22.06
2018-08-28T01:02:00.132Z,22.07
2018-08-28T01:04:35.565Z,22.10
2018-08-28T01:07:04.605Z,22.09
2018-08-28T01:09:33.755Z,22.10
2018-08-28T01:12:02.869Z,22.10
2018-08-28T01:14:32.034Z,22.08
2018-08-28T01:17:01.670Z,22.06
2018-08-28T01:19:31.107Z,22.02
2018-08-28T01:22:03.988Z,21.99
2018-08-28T01:24:33.405Z,21.97
2018-08-28T01:27:02.383Z,21.94
2018-08-28T01:29:31.361Z,21.94
2018-08-28T01:32:00.490Z,21.92
2018-08-28T01:34:29.316Z,21.89
2018-08-28T01:36:58.324Z,21.86
2018-08-28T01:39:27.327Z,21.84
2018-08-28T01:41:56.208Z,21.80
2018-08-28T01:44:25.313Z,21.79
2018-08-28T01:46:54.314Z,21.75
2018-08-28T01:49:25.502Z,21.73
2018-08-28T01:51:54.868Z,21.73
2018-08-28T01:54:23.724Z,21.72
2018-08-28T01:56:52.596Z,21.68
2018-08-28T01:59:21.541Z,21.67
2018-08-28T02:01:56.532Z,21.66
2018-08-28T02:04:25.945Z,21.62
2018-08-28T02:06:54.879Z,21.60
2018-08-28T02:09:23.808Z,21.56
2018-08-28T02:11:52.747Z,21.52
2018-08-28T02:14:21.644Z,21.47
2018-08-28T02:16:50.556Z,21.48
2018-08-28T02:19:19.593Z,21.46
2018-08-28T02:21:48.569Z,21.45
2018-08-28T02:24:17.656Z,21.40
2018-08-28T02:26:47.118Z,21.35
2018-08-28T02:29:16.220Z,21.31
2018-08-28T02:31:45.379Z,21.31
2018-08-28T02:34:14.930Z,21.27
2018-08-28T02:36:43.959Z,21.25
2018-08-28T02:39:12.978Z,21.23
2018-08-28T02:41:43.522Z,21.23
2018-08-28T02:44:12.626Z,21.21
2018-08-28T02:46:41.726Z,21.21
2018-08-28T02:49:10.824Z,21.24
2018-08-28T02:51:39.817Z,21.24
2018-08-28T02:54:11.794Z,21.24
2018-08-28T02:56:40.810Z,21.23
2018-08-28T02:59:09.997Z,21.26
2018-08-28T03:01:40.987Z,21.23
2018-08-28T03:04:10.160Z,21.23
2018-08-28T03:06:39.307Z,21.20
2018-08-28T03:09:08.834Z,21.20
2018-08-28T03:11:37.690Z,21.17
2018-08-28T03:14:06.661Z,21.19
2018-08-28T03:16:35.764Z,21.21
2018-08-28T03:19:04.737Z,21.15
2018-08-28T03:21:33.795Z,21.18
2018-08-28T03:24:02.908Z,21.22
2018-08-28T03:26:31.748Z,21.24
2018-08-28T03:29:00.910Z,21.25
2018-08-28T03:31:29.843Z,21.23
2018-08-28T03:33:58.767Z,21.24
2018-08-28T03:36:28.060Z,21.22
2018-08-28T03:38:56.974Z,21.26
2018-08-28T03:41:27.121Z,21.23
2018-08-28T03:43:56.940Z,21.21
2018-08-28T03:46:26.002Z,21.20
2018-08-28T03:48:55.975Z,21.21
2018-08-28T03:51:25.844Z,21.18
2018-08-28T03:53:55.881Z,21.18
2018-08-28T03:56:24.925Z,21.18
2018-08-28T03:58:58.464Z,21.18
2018-08-28T04:01:27.243Z,21.16
2018-08-28T04:04:01.583Z,21.18
2018-08-28T04:06:30.669Z,21.16
2018-08-28T04:09:02.518Z,21.15
2018-08-28T04:11:36.730Z,21.15
2018-08-28T04:14:05.828Z,21.20
2018-08-28T04:16:34.853Z,21.18
2018-08-28T04:19:04.310Z,21.20
2018-08-28T04:21:33.196Z,21.18
2018-08-28T04:24:02.111Z,21.19
2018-08-28T04:26:31.547Z,21.24
2018-08-28T04:29:00.490Z,21.25
2018-08-28T04:31:29.393Z,21.27
2018-08-28T04:33:58.357Z,21.29
2018-08-28T04:36:27.464Z,21.32
2018-08-28T04:38:56.391Z,21.32
2018-08-28T04:41:25.717Z,21.33
2018-08-28T04:43:54.752Z,21.35
2018-08-28T04:46:23.662Z,21.38
2018-08-28T04:48:52.695Z,21.43
2018-08-28T04:51:23.800Z,21.46
2018-08-28T04:53:53.215Z,21.58
2018-08-28T04:56:22.300Z,21.68
2018-08-28T04:58:51.310Z,21.83
2018-08-28T05:01:20.344Z,22.06
2018-08-28T05:03:49.127Z,22.23
2018-08-28T05:06:21.250Z,22.36
2018-08-28T05:08:50.205Z,22.55
2018-08-28T05:11:19.217Z,22.65
2018-08-28T05:13:48.236Z,22.61
2018-08-28T05:16:17.208Z,22.62
2018-08-28T05:18:46.466Z,22.66
2018-08-28T05:21:15.705Z,22.70
2018-08-28T05:23:44.674Z,22.68
2018-08-28T05:26:13.702Z,22.76
2018-08-28T05:28:42.641Z,22.79
2018-08-28T05:31:11.762Z,22.81
2018-08-28T05:33:40.784Z,22.87
2018-08-28T05:36:09.868Z,22.89
2018-08-28T05:38:38.905Z,22.86
2018-08-28T05:41:07.814Z,22.87
2018-08-28T05:43:37.223Z,23.01
2018-08-28T05:46:06.467Z,23.18
2018-08-28T05:48:35.461Z,23.30
2018-08-28T05:51:04.572Z,23.39
2018-08-28T05:53:33.655Z,23.41
2018-08-28T05:56:02.620Z,23.52
2018-08-28T05:58:31.746Z,23.70
2018-08-28T06:01:00.926Z,23.73
2018-08-28T06:03:30.198Z,24.00
2018-08-28T06:05:59.182Z,24.01
2018-08-28T06:08:29.284Z,24.10
2018-08-28T06:10:59.910Z,24.24
2018-08-28T06:13:28.938Z,24.38
2018-08-28T06:15:57.755Z,24.43
2018-08-28T06:18:26.756Z,24.26
2018-08-28T06:20:55.768Z,24.23
2018-08-28T06:23:24.701Z,24.28
2018-08-28T06:25:53.544Z,24.40
2018-08-28T06:28:23.529Z,24.66
2018-08-28T06:30:52.557Z,24.79
2018-08-28T06:33:21.494Z,24.76
2018-08-28T06:35:50.430Z,24.64
2018-08-28T06:38:19.394Z,24.54
2018-08-28T06:40:48.428Z,24.63
2018-08-28T06:43:19.303Z,24.70
2018-08-28T06:45:48.560Z,24.83
2018-08-28T06:48:17.476Z,24.78
2018-08-28T06:50:46.373Z,24.65
2018-08-28T06:53:15.614Z,24.62
2018-08-28T06:55:45.385Z,24.65
2018-08-28T06:58:14.305Z,24.57
2018-08-28T07:00:44.119Z,24.76
2018-08-28T07:03:13.293Z,24.97
2018-08-28T07:05:42.411Z,24.98
2018-08-28T07:08:11.904Z,24.97
2018-08-28T07:10:40.952Z,24.87
2018-08-28T07:13:09.717Z,25.07
2018-08-28T07:15:38.853Z,25.19
2018-08-28T07:18:07.692Z,25.20
2018-08-28T07:20:36.958Z,25.21
2018-08-28T07:23:06.017Z,25.20
2018-08-28T07:25:34.931Z,25.36
2018-08-28T07:28:04.104Z,25.44
2018-08-28T07:30:33.461Z,25.45
2018-08-28T07:33:02.274Z,25.55
2018-08-28T07:35:31.249Z,25.50
2018-08-28T07:38:00.156Z,25.53
2018-08-28T07:40:29.035Z,25.50
2018-08-28T07:42:58.095Z,25.68
2018-08-28T07:45:27.092Z,25.79
2018-08-28T07:47:56.174Z,26.03
2018-08-28T07:50:25.198Z,26.20
2018-08-28T07:52:54.892Z,26.22
2018-08-28T07:55:23.754Z,26.38
2018-08-28T07:57:52.645Z,26.53
2018-08-28T08:00:21.716Z,26.42
2018-08-28T08:02:50.661Z,26.21
2018-08-28T08:05:19.818Z,26.19
2018-08-28T08:07:49.224Z,26.27
2018-08-28T08:10:18.600Z,26.39
2018-08-28T08:12:47.634Z,26.51
2018-08-28T08:15:16.905Z,26.58
2018-08-28T08:17:45.825Z,26.80
2018-08-28T08:20:14.691Z,26.82
2018-08-28T08:22:43.607Z,27.01
2018-08-28T08:25:12.567Z,27.09
2018-08-28T08:27:41.623Z,26.96
2018-08-28T08:30:10.712Z,26.95
2018-08-28T08:32:39.602Z,27.00
2018-08-28T08:35:08.851Z,26.98
2018-08-28T08:37:38.339Z,27.06
2018-08-28T08:40:07.369Z,27.23
2018-08-28T08:42:36.456Z,27.24
2018-08-28T08:45:05.645Z,27.27
2018-08-28T08:47:34.500Z,27.45
2018-08-28T08:50:03.389Z,27.63
2018-08-28T08:52:32.698Z,27.81
2018-08-28T08:55:01.546Z,27.90
2018-08-28T08:57:30.572Z,27.79
2018-08-28T08:59:59.982Z,28.01
2018-08-28T09:02:29.067Z,27.87
2018-08-28T09:04:58.071Z,27.87
2018-08-28T09:07:27.681Z,27.91
2018-08-28T09:09:56.681Z,27.88
2018-08-28T09:12:25.548Z,27.84
2018-08-28T09:14:54.644Z,28.24
2018-08-28T09:17:23.700Z,28.45
2018-08-28T09:19:52.800Z,28.46
2018-08-28T09:22:22.335Z,28.32
2018-08-28T09:24:51.408Z,28.59
2018-08-28T09:27:20.485Z,28.61
2018-08-28T09:29:49.850Z,28.70
2018-08-28T09:32:18.715Z,28.73
2018-08-28T09:34:47.753Z,29.04
2018-08-28T09:37:17.291Z,29.23
2018-08-28T09:39:46.328Z,29.20
2018-08-28T09:42:15.227Z,29.10
2018-08-28T09:44:44.660Z,29.24
2018-08-28T09:47:13.677Z,29.34
2018-08-28T09:49:42.763Z,29.43
2018-08-28T09:52:12.210Z,29.34
2018-08-28T09:54:41.208Z,29.43
2018-08-28T09:57:10.180Z,29.61
2018-08-28T09:59:38.951Z,29.73
2018-08-28T10:02:08.133Z,29.73
2018-08-28T10:04:38.269Z,29.71
2018-08-28T10:07:07.248Z,29.77
2018-08-28T10:09:36.357Z,29.81
2018-08-28T10:12:05.483Z,29.97
2018-08-28T10:14:34.576Z,30.12
2018-08-28T10:17:03.575Z,30.04
2018-08-28T10:19:32.603Z,30.11
2018-08-28T10:22:01.600Z,30.37
2018-08-28T10:24:30.492Z,30.47
2018-08-28T10:26:59.444Z,30.60
2018-08-28T10:29:28.749Z,30.83
2018-08-28T10:31:57.590Z,30.93
2018-08-28T10:34:26.511Z,30.91
2018-08-28T10:36:56.141Z,30.90
2018-08-28T10:39:25.068Z,31.14
2018-08-28T10:41:54.024Z,30.61
2018-08-28T10:44:22.871Z,31.15
2018-08-28T10:46:52.022Z,31.15
2018-08-28T10:49:20.668Z,31.37
2018-08-28T10:51:49.929Z,31.40
2018-08-28T10:54:18.916Z,31.23
2018-08-28T10:56:47.708Z,31.12
2018-08-28T10:59:17.261Z,30.86
2018-08-28T11:01:46.235Z,30.81
2018-08-28T11:04:15.418Z,30.37
2018-08-28T11:06:44.436Z,30.52
2018-08-28T11:09:13.518Z,30.62
2018-08-28T11:11:42.988Z,30.36
2018-08-28T11:14:14.276Z,30.37
2018-08-28T11:16:43.089Z,30.40
2018-08-28T11:19:11.980Z,30.46
2018-08-28T11:21:40.935Z,30.49
2018-08-28T11:24:09.945Z,30.37
2018-08-28T11:26:38.990Z,30.49
2018-08-28T11:29:08.430Z,30.38
2018-08-28T11:31:37.281Z,30.46
2018-08-28T11:34:06.321Z,30.66
2018-08-28T11:36:36.085Z,30.66
2018-08-28T11:39:05.702Z,30.24
2018-08-28T11:41:34.865Z,30.70
2018-08-28T11:44:04.201Z,30.81
2018-08-28T11:46:33.143Z,31.13
2018-08-28T11:49:01.932Z,31.30
2018-08-28T11:51:31.255Z,30.95
2018-08-28T11:54:00.160Z,31.41
2018-08-28T11:56:29.121Z,31.94
2018-08-28T11:58:58.534Z,32.30
2018-08-28T12:01:27.503Z,32.47
2018-08-28T12:03:56.668Z,32.51
2018-08-28T12:06:26.013Z,32.29
2018-08-28T12:08:55.037Z,31.76
2018-08-28T12:11:24.051Z,31.48
2018-08-28T12:13:54.026Z,31.76
2018-08-28T12:16:23.033Z,31.80
2018-08-28T12:18:51.929Z,31.82
2018-08-28T12:21:20.893Z,32.07
2018-08-28T12:23:50.000Z,32.40
2018-08-28T12:26:19.040Z,32.27
2018-08-28T12:28:48.447Z,32.53
2018-08-28T12:31:17.459Z,32.65
2018-08-28T12:33:46.494Z,32.83
2018-08-28T12:36:15.463Z,32.64
2018-08-28T12:38:44.612Z,32.64
2018-08-28T12:41:13.477Z,32.38
2018-08-28T12:43:42.855Z,31.96
2018-08-28T12:46:11.853Z,31.81
2018-08-28T12:48:40.945Z,31.81
2018-08-28T12:51:10.154Z,32.09
2018-08-28T12:53:39.108Z,32.29
2018-08-28T12:56:08.191Z,32.39
2018-08-28T12:58:37.510Z,32.30
2018-08-28T13:01:06.919Z,32.34
2018-08-28T13:03:36.001Z,32.32
2018-08-28T13:06:05.238Z,32.32
2018-08-28T13:08:34.019Z,32.33
2018-08-28T13:11:02.997Z,32.30
2018-08-28T13:13:31.968Z,32.35
2018-08-28T13:16:01.112Z,32.09
2018-08-28T13:18:30.002Z,32.04
2018-08-28T13:20:59.103Z,31.87
2018-08-28T13:23:28.000Z,31.82
2018-08-28T13:25:57.062Z,31.62
2018-08-28T13:28:25.961Z,31.22
2018-08-28T13:30:55.007Z,31.05
2018-08-28T13:33:24.125Z,30.61
2018-08-28T13:35:54.407Z,30.90
2018-08-28T13:41:03.348Z,30.81
2018-08-28T13:43:32.317Z,30.99
2018-08-28T13:46:01.375Z,30.96
2018-08-28T13:48:30.277Z,31.17
2018-08-28T13:50:59.293Z,31.31
2018-08-28T13:53:28.151Z,31.47
2018-08-28T13:55:57.423Z,31.59
2018-08-28T13:58:26.412Z,31.77
2018-08-28T14:00:55.350Z,31.85
2018-08-28T14:03:24.497Z,31.65
2018-08-28T14:05:58.718Z,31.80
2018-08-28T14:08:34.016Z,31.76
2018-08-28T14:11:06.371Z,31.89
2018-08-28T14:13:35.709Z,31.99
2018-08-28T14:16:04.681Z,32.03
2018-08-28T14:18:33.692Z,32.03
2018-08-28T14:21:03.706Z,32.02
2018-08-28T14:23:32.778Z,32.03
2018-08-28T14:26:01.973Z,31.90
2018-08-28T14:28:32.427Z,31.85
2018-08-28T14:31:01.401Z,31.74
2018-08-28T14:33:30.294Z,31.63
2018-08-28T14:35:59.597Z,31.56
2018-08-28T14:38:28.583Z,31.48
2018-08-28T14:40:57.530Z,31.28
2018-08-28T14:43:26.853Z,31.11
2018-08-28T14:45:56.405Z,31.02
2018-08-28T14:48:25.375Z,31.03
2018-08-28T14:50:54.291Z,30.97
2018-08-28T14:53:23.286Z,30.99
2018-08-28T14:55:52.361Z,30.94
2018-08-28T14:58:21.798Z,30.87
2018-08-28T15:00:51.107Z,30.88
2018-08-28T15:03:20.001Z,30.91
2018-08-28T15:05:49.141Z,30.89
2018-08-28T15:08:18.132Z,30.86
2018-08-28T15:10:47.146Z,30.93
2018-08-28T15:13:16.236Z,31.00
2018-08-28T15:15:45.190Z,30.96
2018-08-28T15:18:14.185Z,30.89
2018-08-28T15:20:43.532Z,30.85
2018-08-28T15:23:13.786Z,30.87
2018-08-28T15:25:43.066Z,30.83
2018-08-28T15:28:13.277Z,30.79
2018-08-28T15:30:42.511Z,30.84
2018-08-28T15:33:11.915Z,30.81
2018-08-28T15:35:40.779Z,30.77
2018-08-28T15:38:09.897Z,30.75
2018-08-28T15:40:39.255Z,30.69
2018-08-28T15:43:08.253Z,30.62
2018-08-28T15:45:37.228Z,30.56
2018-08-28T15:48:06.738Z,30.50
2018-08-28T15:50:35.635Z,30.41
2018-08-28T15:53:04.625Z,30.45
2018-08-28T15:55:34.002Z,30.37
2018-08-28T15:58:03.048Z,30.37
2018-08-28T16:00:32.026Z,30.36
2018-08-28T16:03:01.013Z,30.28
2018-08-28T16:05:30.015Z,30.24
2018-08-28T16:07:58.982Z,30.23
2018-08-28T16:10:28.621Z,30.25
2018-08-28T16:12:57.508Z,30.35
2018-08-28T16:15:26.441Z,30.28
2018-08-28T16:17:55.696Z,30.12
2018-08-28T16:20:25.593Z,29.99
2018-08-28T16:22:59.573Z,29.86
2018-08-28T16:25:28.382Z,29.74
2018-08-28T16:27:57.402Z,29.71
2018-08-28T16:30:26.644Z,29.62
2018-08-28T16:32:55.617Z,29.47
2018-08-28T16:35:24.614Z,29.44
2018-08-28T16:37:54.944Z,29.37
2018-08-28T16:40:23.880Z,29.30
2018-08-28T16:42:52.768Z,29.26
2018-08-28T16:45:22.159Z,29.18
2018-08-28T16:47:51.238Z,29.11
2018-08-28T16:50:20.251Z,29.05
2018-08-28T16:52:49.691Z,28.97
2018-08-28T16:55:18.641Z,28.77
2018-08-28T16:57:47.592Z,28.57
2018-08-28T17:00:16.968Z,28.61
2018-08-28T17:02:45.870Z,28.64
2018-08-28T17:05:14.723Z,28.68
2018-08-28T17:07:44.261Z,28.69
2018-08-28T17:10:13.212Z,28.56
2018-08-28T17:12:42.275Z,28.58
2018-08-28T17:15:11.987Z,28.53
2018-08-28T17:17:40.968Z,28.53
2018-08-28T17:20:09.791Z,28.58
2018-08-28T17:22:38.792Z,28.46
2018-08-28T17:25:07.857Z,28.28
2018-08-28T17:27:36.648Z,28.29
2018-08-28T17:30:05.950Z,28.20
2018-08-28T17:32:34.918Z,28.00
2018-08-28T17:35:03.803Z,27.99
2018-08-28T17:37:32.848Z,27.88
2018-08-28T17:40:01.849Z,27.80
2018-08-28T17:42:30.884Z,27.78
2018-08-28T17:44:59.715Z,27.76
2018-08-28T17:47:28.616Z,27.58
2018-08-28T17:49:57.592Z,27.52
2018-08-28T17:52:26.534Z,27.38
2018-08-28T17:54:55.455Z,27.21
2018-08-28T17:57:24.405Z,27.08
2018-08-28T17:59:53.663Z,27.00
2018-08-28T18:02:22.776Z,27.00
2018-08-28T18:04:51.638Z,26.92
2018-08-28T18:07:20.696Z,26.77
2018-08-28T18:09:49.633Z,26.67
2018-08-28T18:12:18.560Z,26.62
2018-08-28T18:14:47.821Z,26.55
2018-08-28T18:17:16.784Z,26.58
2018-08-28T18:19:46.007Z,26.58
2018-08-28T18:22:14.825Z,26.58
2018-08-28T18:24:43.691Z,26.58
2018-08-28T18:27:12.680Z,26.56
2018-08-28T18:29:41.841Z,26.44
2018-08-28T18:32:10.788Z,26.46
2018-08-28T18:34:39.895Z,26.32
2018-08-28T18:37:09.133Z,26.24
2018-08-28T18:39:38.109Z,26.16
2018-08-28T18:42:07.079Z,26.10
2018-08-28T18:44:36.536Z,26.05
2018-08-28T18:47:05.595Z,25.97
2018-08-28T18:49:34.430Z,26.01
2018-08-28T18:52:03.437Z,25.88
2018-08-28T18:54:32.348Z,25.78
2018-08-28T18:57:01.253Z,25.71
2018-08-28T18:59:30.649Z,25.68
2018-08-28T19:01:59.606Z,25.66
2018-08-28T19:04:28.501Z,25.60
2018-08-28T19:06:57.479Z,25.55
2018-08-28T19:09:26.439Z,25.55
2018-08-28T19:11:55.290Z,25.44
2018-08-28T19:14:24.597Z,25.43
2018-08-28T19:16:53.586Z,25.32
2018-08-28T19:19:22.640Z,25.24
2018-08-28T19:21:51.514Z,25.14
2018-08-28T19:24:20.423Z,25.11
2018-08-28T19:26:49.316Z,25.03
2018-08-28T19:29:18.474Z,25.08
2018-08-28T19:31:47.618Z,25.06
2018-08-28T19:34:16.575Z,24.98
2018-08-28T19:36:45.976Z,24.90
2018-08-28T19:39:14.933Z,24.83
2018-08-28T19:41:43.884Z,24.74
2018-08-28T19:44:13.035Z,24.72
2018-08-28T19:46:42.144Z,24.69
2018-08-28T19:49:11.208Z,24.62
2018-08-28T19:51:40.362Z,24.52
2018-08-28T19:54:09.339Z,24.44
2018-08-28T19:56:38.511Z,24.38
2018-08-28T19:59:07.872Z,24.31
2018-08-28T20:01:36.854Z,24.26
2018-08-28T20:04:06.157Z,24.23
2018-08-28T20:06:35.348Z,24.22
2018-08-28T20:09:04.573Z,24.26
2018-08-28T20:11:33.593Z,24.28
2018-08-28T20:14:02.807Z,24.16
2018-08-28T20:16:31.689Z,24.06
2018-08-28T20:19:00.793Z,23.98
2018-08-28T20:21:30.079Z,23.91
2018-08-28T20:23:59.126Z,24.03
2018-08-28T20:26:28.205Z,23.99
2018-08-28T20:28:57.591Z,24.01
2018-08-28T20:31:26.541Z,24.02
2018-08-28T20:33:55.369Z,24.00
2018-08-28T20:36:24.483Z,24.04
2018-08-28T20:38:53.415Z,24.03
2018-08-28T20:41:22.420Z,23.91
2018-08-28T20:43:54.622Z,23.85
2018-08-28T20:46:23.933Z,24.00
2018-08-28T20:48:53.349Z,24.07
2018-08-28T20:51:22.300Z,24.03
2018-08-28T20:53:51.355Z,24.03
2018-08-28T20:56:20.696Z,24.07
2018-08-28T20:58:49.629Z,24.10
2018-08-28T21:03:46.743Z,24.11
2018-08-28T21:06:15.725Z,24.11
2018-08-28T21:08:44.649Z,24.07
2018-08-28T21:11:14.020Z,24.05
2018-08-28T21:13:42.864Z,23.99
2018-08-28T21:16:11.908Z,23.95
2018-08-28T21:18:41.025Z,23.97
2018-08-28T21:21:10.022Z,24.00
2018-08-28T21:23:39.499Z,23.98
2018-08-28T21:26:08.796Z,23.99
2018-08-28T21:28:37.657Z,24.01
2018-08-28T21:31:06.601Z,23.95
2018-08-28T21:33:35.610Z,23.94
2018-08-28T21:36:04.552Z,23.89
2018-08-28T21:38:33.624Z,23.83
2018-08-28T21:41:03.462Z,23.81
2018-08-28T21:43:33.216Z,23.77
2018-08-28T21:46:02.093Z,23.68
2018-08-28T21:48:31.472Z,23.61
2018-08-28T21:51:00.482Z,23.52
2018-08-28T21:53:29.528Z,23.48
2018-08-28T21:55:58.930Z,23.42
2018-08-28T21:58:27.765Z,23.41
2018-08-28T22:01:01.862Z,23.27
2018-08-28T22:03:30.764Z,23.27
2018-08-28T22:05:59.862Z,23.23
2018-08-28T22:08:29.494Z,23.20
2018-08-28T22:10:58.443Z,23.12
2018-08-28T22:13:27.511Z,23.06
2018-08-28T22:15:56.914Z,23.01
2018-08-28T22:18:26.034Z,22.94
2018-08-28T22:20:56.151Z,22.91
2018-08-28T22:23:26.065Z,22.90
2018-08-28T22:25:55.041Z,22.92
2018-08-28T22:28:24.114Z,22.93
2018-08-28T22:30:53.376Z,22.93
2018-08-28T22:33:22.271Z,22.95
2018-08-28T22:35:51.247Z,22.86
2018-08-28T22:38:20.442Z,22.90
2018-08-28T22:40:49.263Z,22.87
2018-08-28T22:43:24.050Z,22.96
2018-08-28T22:45:53.209Z,23.03
2018-08-28T22:48:22.201Z,22.97
2018-08-28T22:50:51.647Z,22.91
2018-08-28T22:53:20.529Z,22.87
2018-08-28T22:55:49.448Z,22.82
2018-08-28T22:58:18.731Z,22.80
2018-08-28T23:00:47.651Z,22.73
2018-08-28T23:03:16.549Z,22.72
2018-08-28T23:05:45.445Z,22.71
2018-08-28T23:08:14.463Z,22.67
2018-08-28T23:10:43.379Z,22.65
2018-08-28T23:13:12.268Z,22.64
2018-08-28T23:15:41.146Z,22.59
2018-08-28T23:18:09.999Z,22.61
2018-08-28T23:20:39.227Z,22.55
2018-08-28T23:23:08.223Z,22.59
2018-08-28T23:25:37.234Z,22.59
2018-08-28T23:28:06.212Z,22.56
2018-08-28T23:30:35.120Z,22.51
2018-08-28T23:33:04.033Z,22.51
2018-08-28T23:35:33.438Z,22.50
2018-08-28T23:38:02.464Z,22.57
2018-08-28T23:40:31.459Z,22.56
2018-08-28T23:43:00.442Z,22.59
2018-08-28T23:45:29.636Z,22.56
2018-08-28T23:47:58.447Z,22.53
2018-08-28T23:50:27.833Z,22.52
2018-08-28T23:52:56.740Z,22.52
2018-08-28T23:55:25.786Z,22.52
2018-08-28T23:57:55.113Z,22.53
